sensor_id;sensor_type;location;lat;lon;timestamp;temperature;humidity
66522;SHT31;53349;53.538;8.584;2022-10-17T00:01:37;13.01;75.30
66522;SHT31;53349;53.538;8.584;2022-10-17T00:04:03;12.98;75.56
66522;SHT31;53349;53.538;8.584;2022-10-17T00:06:28;13.00;75.54
66522;SHT31;53349;53.538;8.584;2022-10-17T00:08:53;13.00;75.54
66522;SHT31;53349;53.538;8.584;2022-10-17T00:11:21;13.00;75.66
66522;SHT31;53349;53.538;8.584;2022-10-17T00:13:48;13.03;75.43
66522;SHT31;53349;53.538;8.584;2022-10-17T00:16:15;13.04;75.27
66522;SHT31;53349;53.538;8.584;2022-10-17T00:18:40;13.01;75.25
66522;SHT31;53349;53.538;8.584;2022-10-17T00:21:14;13.00;75.29
66522;SHT31;53349;53.538;8.584;2022-10-17T00:23:39;13.00;75.29
66522;SHT31;53349;53.538;8.584;2022-10-17T00:26:04;12.97;75.43
66522;SHT31;53349;53.538;8.584;2022-10-17T00:28:30;12.96;75.40
66522;SHT31;53349;53.538;8.584;2022-10-17T00:31:02;12.94;75.35
66522;SHT31;53349;53.538;8.584;2022-10-17T00:33:29;12.93;75.48
66522;SHT31;53349;53.538;8.584;2022-10-17T00:36:06;12.91;75.47
66522;SHT31;53349;53.538;8.584;2022-10-17T00:38:32;12.87;75.59
66522;SHT31;53349;53.538;8.584;2022-10-17T00:40:57;12.83;75.69
66522;SHT31;53349;53.538;8.584;2022-10-17T00:43:23;12.83;75.81
66522;SHT31;53349;53.538;8.584;2022-10-17T00:45:48;12.88;75.63
66522;SHT31;53349;53.538;8.584;2022-10-17T00:48:14;12.88;75.53
66522;SHT31;53349;53.538;8.584;2022-10-17T00:50:43;12.91;75.52
66522;SHT31;53349;53.538;8.584;2022-10-17T00:53:09;12.87;75.61
66522;SHT31;53349;53.538;8.584;2022-10-17T00:55:45;12.83;75.81
66522;SHT31;53349;53.538;8.584;2022-10-17T00:58:11;12.83;76.06
66522;SHT31;53349;53.538;8.584;2022-10-17T01:00:37;12.88;75.97
66522;SHT31;53349;53.538;8.584;2022-10-17T01:03:03;12.91;75.92
66522;SHT31;53349;53.538;8.584;2022-10-17T01:05:28;12.93;75.95
66522;SHT31;53349;53.538;8.584;2022-10-17T01:07:54;12.93;75.86
66522;SHT31;53349;53.538;8.584;2022-10-17T01:10:20;12.98;75.81
66522;SHT31;53349;53.538;8.584;2022-10-17T01:18:14;13.00;75.74
66522;SHT31;53349;53.538;8.584;2022-10-17T01:21:03;13.00;75.79
66522;SHT31;53349;53.538;8.584;2022-10-17T01:24:10;13.03;75.70
66522;SHT31;53349;53.538;8.584;2022-10-17T01:32:21;13.07;75.76
66522;SHT31;53349;53.538;8.584;2022-10-17T01:35:08;13.04;75.80
66522;SHT31;53349;53.538;8.584;2022-10-17T01:37:45;13.04;75.88
66522;SHT31;53349;53.538;8.584;2022-10-17T01:40:36;13.04;75.88
66522;SHT31;53349;53.538;8.584;2022-10-17T01:43:16;13.05;75.95
66522;SHT31;53349;53.538;8.584;2022-10-17T01:45:57;13.10;75.96
66522;SHT31;53349;53.538;8.584;2022-10-17T01:48:30;13.07;76.04
66522;SHT31;53349;53.538;8.584;2022-10-17T01:51:02;13.07;76.05
66522;SHT31;53349;53.538;8.584;2022-10-17T01:53:32;13.10;76.08
66522;SHT31;53349;53.538;8.584;2022-10-17T01:56:00;13.07;76.10
66522;SHT31;53349;53.538;8.584;2022-10-17T01:58:30;13.07;76.31
66522;SHT31;53349;53.538;8.584;2022-10-17T02:01:00;13.11;76.35
66522;SHT31;53349;53.538;8.584;2022-10-17T02:03:27;13.07;76.30
66522;SHT31;53349;53.538;8.584;2022-10-17T02:05:53;13.08;76.40
66522;SHT31;53349;53.538;8.584;2022-10-17T02:08:30;13.10;76.44
66522;SHT31;53349;53.538;8.584;2022-10-17T02:11:08;13.10;76.44
66522;SHT31;53349;53.538;8.584;2022-10-17T02:16:39;13.05;76.74
66522;SHT31;53349;53.538;8.584;2022-10-17T02:24:53;13.05;76.96
66522;SHT31;53349;53.538;8.584;2022-10-17T02:27:42;13.08;76.89
66522;SHT31;53349;53.538;8.584;2022-10-17T02:30:30;13.04;77.07
66522;SHT31;53349;53.538;8.584;2022-10-17T02:33:13;13.03;77.16
66522;SHT31;53349;53.538;8.584;2022-10-17T02:35:46;13.03;77.25
66522;SHT31;53349;53.538;8.584;2022-10-17T02:38:12;13.05;77.10
66522;SHT31;53349;53.538;8.584;2022-10-17T02:40:39;13.05;77.07
66522;SHT31;53349;53.538;8.584;2022-10-17T02:43:05;13.07;77.05
66522;SHT31;53349;53.538;8.584;2022-10-17T02:45:32;13.14;77.05
66522;SHT31;53349;53.538;8.584;2022-10-17T02:50:53;13.12;77.04
66522;SHT31;53349;53.538;8.584;2022-10-17T02:53:43;13.11;77.12
66522;SHT31;53349;53.538;8.584;2022-10-17T02:56:16;13.10;77.34
66522;SHT31;53349;53.538;8.584;2022-10-17T02:58:45;13.10;77.30
66522;SHT31;53349;53.538;8.584;2022-10-17T03:01:12;13.08;77.39
66522;SHT31;53349;53.538;8.584;2022-10-17T03:03:38;13.08;77.49
66522;SHT31;53349;53.538;8.584;2022-10-17T03:06:04;13.07;77.60
66522;SHT31;53349;53.538;8.584;2022-10-17T03:08:29;13.11;77.52
66522;SHT31;53349;53.538;8.584;2022-10-17T03:10:54;13.08;77.65
66522;SHT31;53349;53.538;8.584;2022-10-17T03:13:20;13.07;77.73
66522;SHT31;53349;53.538;8.584;2022-10-17T03:15:45;13.10;77.78
66522;SHT31;53349;53.538;8.584;2022-10-17T03:18:11;13.10;77.83
66522;SHT31;53349;53.538;8.584;2022-10-17T03:20:36;13.12;77.74
66522;SHT31;53349;53.538;8.584;2022-10-17T03:23:02;13.14;77.72
66522;SHT31;53349;53.538;8.584;2022-10-17T03:25:27;13.12;77.87
66522;SHT31;53349;53.538;8.584;2022-10-17T03:27:53;13.14;77.97
66522;SHT31;53349;53.538;8.584;2022-10-17T03:30:19;13.12;78.00
66522;SHT31;53349;53.538;8.584;2022-10-17T03:32:44;13.12;78.00
66522;SHT31;53349;53.538;8.584;2022-10-17T03:35:10;13.14;78.10
66522;SHT31;53349;53.538;8.584;2022-10-17T03:37:36;13.17;78.12
66522;SHT31;53349;53.538;8.584;2022-10-17T03:40:02;13.18;78.06
66522;SHT31;53349;53.538;8.584;2022-10-17T03:42:27;13.15;78.26
66522;SHT31;53349;53.538;8.584;2022-10-17T03:44:53;13.17;78.36
66522;SHT31;53349;53.538;8.584;2022-10-17T03:47:18;13.11;78.42
66522;SHT31;53349;53.538;8.584;2022-10-17T03:49:44;13.12;78.62
66522;SHT31;53349;53.538;8.584;2022-10-17T03:52:13;13.11;78.72
66522;SHT31;53349;53.538;8.584;2022-10-17T03:54:38;13.12;78.71
66522;SHT31;53349;53.538;8.584;2022-10-17T03:57:04;13.12;78.92
66522;SHT31;53349;53.538;8.584;2022-10-17T03:59:29;13.17;78.88
66522;SHT31;53349;53.538;8.584;2022-10-17T04:01:55;13.15;78.91
66522;SHT31;53349;53.538;8.584;2022-10-17T04:04:20;13.18;79.08
66522;SHT31;53349;53.538;8.584;2022-10-17T04:06:46;13.15;79.24
66522;SHT31;53349;53.538;8.584;2022-10-17T04:09:11;13.15;79.34
66522;SHT31;53349;53.538;8.584;2022-10-17T04:11:37;13.15;79.64
66522;SHT31;53349;53.538;8.584;2022-10-17T04:14:02;13.14;79.77
66522;SHT31;53349;53.538;8.584;2022-10-17T04:16:28;13.18;79.78
66522;SHT31;53349;53.538;8.584;2022-10-17T04:18:56;13.19;79.86
66522;SHT31;53349;53.538;8.584;2022-10-17T04:21:23;13.22;80.00
66522;SHT31;53349;53.538;8.584;2022-10-17T04:23:57;13.24;80.14
66522;SHT31;53349;53.538;8.584;2022-10-17T04:26:22;13.24;80.27
66522;SHT31;53349;53.538;8.584;2022-10-17T04:28:48;13.25;80.20
66522;SHT31;53349;53.538;8.584;2022-10-17T04:31:14;13.29;80.37
66522;SHT31;53349;53.538;8.584;2022-10-17T04:33:40;13.28;80.37
66522;SHT31;53349;53.538;8.584;2022-10-17T04:36:11;13.29;80.44
66522;SHT31;53349;53.538;8.584;2022-10-17T04:38:37;13.29;80.52
66522;SHT31;53349;53.538;8.584;2022-10-17T04:41:05;13.31;80.63
66522;SHT31;53349;53.538;8.584;2022-10-17T04:43:34;13.34;80.82
66522;SHT31;53349;53.538;8.584;2022-10-17T04:46:04;13.34;80.90
66522;SHT31;53349;53.538;8.584;2022-10-17T04:48:29;13.32;81.04
66522;SHT31;53349;53.538;8.584;2022-10-17T04:51:01;13.34;81.13
66522;SHT31;53349;53.538;8.584;2022-10-17T04:53:27;13.35;81.26
66522;SHT31;53349;53.538;8.584;2022-10-17T04:55:53;13.36;81.39
66522;SHT31;53349;53.538;8.584;2022-10-17T04:58:20;13.41;81.40
66522;SHT31;53349;53.538;8.584;2022-10-17T05:00:45;13.42;81.35
66522;SHT31;53349;53.538;8.584;2022-10-17T05:03:11;13.42;81.42
66522;SHT31;53349;53.538;8.584;2022-10-17T05:05:40;13.48;81.47
66522;SHT31;53349;53.538;8.584;2022-10-17T05:08:09;13.49;81.35
66522;SHT31;53349;53.538;8.584;2022-10-17T05:10:40;13.44;81.44
66522;SHT31;53349;53.538;8.584;2022-10-17T05:13:06;13.46;81.51
66522;SHT31;53349;53.538;8.584;2022-10-17T05:15:33;13.44;81.63
66522;SHT31;53349;53.538;8.584;2022-10-17T05:17:58;13.44;81.72
66522;SHT31;53349;53.538;8.584;2022-10-17T05:20:25;13.48;81.70
66522;SHT31;53349;53.538;8.584;2022-10-17T05:22:51;13.46;81.69
66522;SHT31;53349;53.538;8.584;2022-10-17T05:25:17;13.51;81.73
66522;SHT31;53349;53.538;8.584;2022-10-17T05:27:43;13.48;81.70
66522;SHT31;53349;53.538;8.584;2022-10-17T05:30:11;13.49;81.66
66522;SHT31;53349;53.538;8.584;2022-10-17T05:32:37;13.49;81.72
66522;SHT31;53349;53.538;8.584;2022-10-17T05:35:04;13.49;81.82
66522;SHT31;53349;53.538;8.584;2022-10-17T05:37:30;13.44;81.91
66522;SHT31;53349;53.538;8.584;2022-10-17T05:39:56;13.46;81.88
66522;SHT31;53349;53.538;8.584;2022-10-17T05:42:21;13.44;82.02
66522;SHT31;53349;53.538;8.584;2022-10-17T05:44:47;13.42;82.07
66522;SHT31;53349;53.538;8.584;2022-10-17T05:47:12;13.45;82.12
66522;SHT31;53349;53.538;8.584;2022-10-17T05:59:58;13.51;82.80
66522;SHT31;53349;53.538;8.584;2022-10-17T06:02:25;13.49;82.94
66522;SHT31;53349;53.538;8.584;2022-10-17T06:04:50;13.49;82.94
66522;SHT31;53349;53.538;8.584;2022-10-17T06:07:16;13.52;82.88
66522;SHT31;53349;53.538;8.584;2022-10-17T06:09:41;13.54;82.78
66522;SHT31;53349;53.538;8.584;2022-10-17T06:12:07;13.54;82.82
66522;SHT31;53349;53.538;8.584;2022-10-17T06:14:34;13.65;83.24
66522;SHT31;53349;53.538;8.584;2022-10-17T06:16:59;13.70;83.06
66522;SHT31;53349;53.538;8.584;2022-10-17T06:19:25;13.75;82.87
66522;SHT31;53349;53.538;8.584;2022-10-17T06:21:51;13.76;82.51
66522;SHT31;53349;53.538;8.584;2022-10-17T06:24:17;13.77;82.29
66522;SHT31;53349;53.538;8.584;2022-10-17T06:26:42;13.77;82.08
66522;SHT31;53349;53.538;8.584;2022-10-17T06:29:08;13.79;82.05
66522;SHT31;53349;53.538;8.584;2022-10-17T06:31:34;13.80;82.13
66522;SHT31;53349;53.538;8.584;2022-10-17T06:34:02;13.80;82.13
66522;SHT31;53349;53.538;8.584;2022-10-17T06:36:28;13.82;82.06
66522;SHT31;53349;53.538;8.584;2022-10-17T06:38:53;13.85;82.15
66522;SHT31;53349;53.538;8.584;2022-10-17T06:41:18;13.87;82.03
66522;SHT31;53349;53.538;8.584;2022-10-17T06:43:45;13.91;81.93
66522;SHT31;53349;53.538;8.584;2022-10-17T06:46:16;13.95;81.84
66522;SHT31;53349;53.538;8.584;2022-10-17T06:48:42;13.95;81.79
66522;SHT31;53349;53.538;8.584;2022-10-17T06:51:08;13.99;81.82
66522;SHT31;53349;53.538;8.584;2022-10-17T06:53:38;13.99;81.75
66522;SHT31;53349;53.538;8.584;2022-10-17T06:56:06;14.06;81.72
66522;SHT31;53349;53.538;8.584;2022-10-17T06:58:34;14.09;81.64
66522;SHT31;53349;53.538;8.584;2022-10-17T07:01:01;14.14;81.49
66522;SHT31;53349;53.538;8.584;2022-10-17T07:03:28;14.16;81.37
66522;SHT31;53349;53.538;8.584;2022-10-17T07:05:54;14.20;81.31
66522;SHT31;53349;53.538;8.584;2022-10-17T07:08:21;14.24;81.27
66522;SHT31;53349;53.538;8.584;2022-10-17T07:10:47;14.27;81.28
66522;SHT31;53349;53.538;8.584;2022-10-17T07:13:13;14.31;81.23
66522;SHT31;53349;53.538;8.584;2022-10-17T07:15:39;14.31;81.21
66522;SHT31;53349;53.538;8.584;2022-10-17T07:18:05;14.34;81.25
66522;SHT31;53349;53.538;8.584;2022-10-17T07:20:31;14.38;81.16
66522;SHT31;53349;53.538;8.584;2022-10-17T07:22:56;14.38;81.11
66522;SHT31;53349;53.538;8.584;2022-10-17T07:25:22;14.41;80.97
66522;SHT31;53349;53.538;8.584;2022-10-17T07:27:48;14.38;81.10
66522;SHT31;53349;53.538;8.584;2022-10-17T07:30:14;14.41;81.17
66522;SHT31;53349;53.538;8.584;2022-10-17T07:32:41;14.42;81.26
66522;SHT31;53349;53.538;8.584;2022-10-17T07:35:06;14.40;81.27
66522;SHT31;53349;53.538;8.584;2022-10-17T07:37:34;14.38;81.44
66522;SHT31;53349;53.538;8.584;2022-10-17T07:40:01;14.40;81.45
66522;SHT31;53349;53.538;8.584;2022-10-17T07:42:26;14.40;81.49
66522;SHT31;53349;53.538;8.584;2022-10-17T07:44:53;14.42;81.54
66522;SHT31;53349;53.538;8.584;2022-10-17T07:47:19;14.44;81.59
66522;SHT31;53349;53.538;8.584;2022-10-17T07:49:45;14.48;81.63
66522;SHT31;53349;53.538;8.584;2022-10-17T07:52:14;14.51;81.66
66522;SHT31;53349;53.538;8.584;2022-10-17T07:54:40;14.55;81.65
66522;SHT31;53349;53.538;8.584;2022-10-17T07:57:06;14.63;81.54
66522;SHT31;53349;53.538;8.584;2022-10-17T07:59:32;14.71;81.38
66522;SHT31;53349;53.538;8.584;2022-10-17T08:01:58;14.78;81.29
66522;SHT31;53349;53.538;8.584;2022-10-17T08:04:24;14.86;81.23
66522;SHT31;53349;53.538;8.584;2022-10-17T08:06:53;14.95;81.06
66522;SHT31;53349;53.538;8.584;2022-10-17T08:09:19;15.05;80.88
66522;SHT31;53349;53.538;8.584;2022-10-17T08:11:44;15.13;80.67
66522;SHT31;53349;53.538;8.584;2022-10-17T08:14:11;15.25;80.52
66522;SHT31;53349;53.538;8.584;2022-10-17T08:16:37;15.33;80.28
66522;SHT31;53349;53.538;8.584;2022-10-17T08:19:03;15.53;79.88
66522;SHT31;53349;53.538;8.584;2022-10-17T08:21:29;15.63;79.44
66522;SHT31;53349;53.538;8.584;2022-10-17T08:23:54;15.71;79.15
66522;SHT31;53349;53.538;8.584;2022-10-17T08:26:20;15.86;78.93
66522;SHT31;53349;53.538;8.584;2022-10-17T08:28:46;16.02;78.62
66522;SHT31;53349;53.538;8.584;2022-10-17T08:31:14;16.14;78.26
66522;SHT31;53349;53.538;8.584;2022-10-17T08:33:40;16.30;77.76
66522;SHT31;53349;53.538;8.584;2022-10-17T08:36:07;16.46;77.38
66522;SHT31;53349;53.538;8.584;2022-10-17T08:38:36;16.51;77.14
66522;SHT31;53349;53.538;8.584;2022-10-17T08:41:18;16.83;76.53
66522;SHT31;53349;53.538;8.584;2022-10-17T08:46:13;17.39;74.81
66522;SHT31;53349;53.538;8.584;2022-10-17T08:48:42;17.64;74.16
66522;SHT31;53349;53.538;8.584;2022-10-17T08:51:15;17.79;73.68
66522;SHT31;53349;53.538;8.584;2022-10-17T08:53:50;17.98;73.11
66522;SHT31;53349;53.538;8.584;2022-10-17T08:56:19;18.16;72.56
66522;SHT31;53349;53.538;8.584;2022-10-17T08:58:45;18.23;72.33
66522;SHT31;53349;53.538;8.584;2022-10-17T09:01:40;18.22;72.25
66522;SHT31;53349;53.538;8.584;2022-10-17T09:12:40;18.33;72.46
66522;SHT31;53349;53.538;8.584;2022-10-17T09:18:02;18.44;72.10
66522;SHT31;53349;53.538;8.584;2022-10-17T09:20:53;18.58;71.75
66522;SHT31;53349;53.538;8.584;2022-10-17T09:23:26;18.67;71.67
66522;SHT31;53349;53.538;8.584;2022-10-17T09:25:58;18.79;71.35
66522;SHT31;53349;53.538;8.584;2022-10-17T09:28:37;18.94;70.99
66522;SHT31;53349;53.538;8.584;2022-10-17T09:31:15;19.14;70.69
66522;SHT31;53349;53.538;8.584;2022-10-17T09:33:48;19.38;69.79
66522;SHT31;53349;53.538;8.584;2022-10-17T09:36:35;19.52;69.35
66522;SHT31;53349;53.538;8.584;2022-10-17T09:39:03;19.62;69.17
66522;SHT31;53349;53.538;8.584;2022-10-17T09:41:58;19.46;69.44
66522;SHT31;53349;53.538;8.584;2022-10-17T09:45:35;19.40;69.80
66522;SHT31;53349;53.538;8.584;2022-10-17T09:47:34;19.30;70.27
66522;SHT31;53349;53.538;8.584;2022-10-17T09:50:09;19.22;70.79
66522;SHT31;53349;53.538;8.584;2022-10-17T09:52:41;19.12;71.12
66522;SHT31;53349;53.538;8.584;2022-10-17T09:55:24;19.07;71.45
66522;SHT31;53349;53.538;8.584;2022-10-17T09:57:56;18.97;71.92
66522;SHT31;53349;53.538;8.584;2022-10-17T10:00:30;18.98;71.99
66522;SHT31;53349;53.538;8.584;2022-10-17T10:05:40;18.81;72.48
66522;SHT31;53349;53.538;8.584;2022-10-17T10:08:16;18.72;72.80
66522;SHT31;53349;53.538;8.584;2022-10-17T10:10:42;18.72;73.04
66522;SHT31;53349;53.538;8.584;2022-10-17T10:15:48;18.68;73.39
66522;SHT31;53349;53.538;8.584;2022-10-17T10:18:29;18.63;73.63
66522;SHT31;53349;53.538;8.584;2022-10-17T10:21:15;18.61;73.76
66522;SHT31;53349;53.538;8.584;2022-10-17T10:23:44;18.58;73.97
66522;SHT31;53349;53.538;8.584;2022-10-17T10:28:54;18.57;73.98
66522;SHT31;53349;53.538;8.584;2022-10-17T10:31:30;18.57;74.01
66522;SHT31;53349;53.538;8.584;2022-10-17T10:33:59;18.53;74.20
66522;SHT31;53349;53.538;8.584;2022-10-17T10:36:41;18.48;74.35
66522;SHT31;53349;53.538;8.584;2022-10-17T10:39:19;18.47;74.53
66522;SHT31;53349;53.538;8.584;2022-10-17T10:41:48;18.48;74.58
66522;SHT31;53349;53.538;8.584;2022-10-17T10:44:14;18.47;74.48
66522;SHT31;53349;53.538;8.584;2022-10-17T10:46:41;18.51;74.58
66522;SHT31;53349;53.538;8.584;2022-10-17T10:49:28;18.53;74.72
66522;SHT31;53349;53.538;8.584;2022-10-17T10:51:54;18.54;74.87
66522;SHT31;53349;53.538;8.584;2022-10-17T10:54:26;18.56;74.95
66522;SHT31;53349;53.538;8.584;2022-10-17T10:56:57;18.56;75.15
66522;SHT31;53349;53.538;8.584;2022-10-17T10:59:57;18.58;75.12
66522;SHT31;53349;53.538;8.584;2022-10-17T11:05:17;18.58;75.18
66522;SHT31;53349;53.538;8.584;2022-10-17T11:08:05;18.61;75.11
66522;SHT31;53349;53.538;8.584;2022-10-17T11:10:42;18.61;75.21
66522;SHT31;53349;53.538;8.584;2022-10-17T11:13:14;18.65;75.15
66522;SHT31;53349;53.538;8.584;2022-10-17T11:21:08;18.58;74.94
66522;SHT31;53349;53.538;8.584;2022-10-17T11:23:46;18.60;74.72
66522;SHT31;53349;53.538;8.584;2022-10-17T11:26:16;18.53;74.54
66522;SHT31;53349;53.538;8.584;2022-10-17T11:28:51;18.48;74.35
66522;SHT31;53349;53.538;8.584;2022-10-17T11:31:19;18.46;74.60
66522;SHT31;53349;53.538;8.584;2022-10-17T11:33:58;18.41;74.82
66522;SHT31;53349;53.538;8.584;2022-10-17T11:36:28;18.44;74.91
66522;SHT31;53349;53.538;8.584;2022-10-17T11:39:50;18.37;75.55
66522;SHT31;53349;53.538;8.584;2022-10-17T11:41:53;18.33;76.57
66522;SHT31;53349;53.538;8.584;2022-10-17T11:44:28;18.22;77.33
66522;SHT31;53349;53.538;8.584;2022-10-17T11:53:03;17.93;79.71
66522;SHT31;53349;53.538;8.584;2022-10-17T11:55:31;17.89;80.29
66522;SHT31;53349;53.538;8.584;2022-10-17T11:58:05;17.88;80.79
66522;SHT31;53349;53.538;8.584;2022-10-17T12:00:55;17.86;80.94
66522;SHT31;53349;53.538;8.584;2022-10-17T12:08:43;17.93;81.50
66522;SHT31;53349;53.538;8.584;2022-10-17T12:11:33;17.90;81.50
66522;SHT31;53349;53.538;8.584;2022-10-17T12:14:40;17.89;81.33
66522;SHT31;53349;53.538;8.584;2022-10-17T12:17:22;17.85;81.11
66522;SHT31;53349;53.538;8.584;2022-10-17T12:19:49;17.81;81.10
66522;SHT31;53349;53.538;8.584;2022-10-17T12:22:24;17.74;81.32
66522;SHT31;53349;53.538;8.584;2022-10-17T12:25:02;17.64;81.94
66522;SHT31;53349;53.538;8.584;2022-10-17T12:27:40;17.57;82.45
66522;SHT31;53349;53.538;8.584;2022-10-17T12:32:36;17.45;83.07
66522;SHT31;53349;53.538;8.584;2022-10-17T12:35:02;17.42;83.31
66522;SHT31;53349;53.538;8.584;2022-10-17T12:42:59;17.37;83.94
66522;SHT31;53349;53.538;8.584;2022-10-17T12:45:53;17.38;84.18
66522;SHT31;53349;53.538;8.584;2022-10-17T12:51:09;17.38;84.61
66522;SHT31;53349;53.538;8.584;2022-10-17T12:56:06;17.38;84.57
66522;SHT31;53349;53.538;8.584;2022-10-17T12:58:33;17.35;84.72
66522;SHT31;53349;53.538;8.584;2022-10-17T13:00:59;17.34;84.70
66522;SHT31;53349;53.538;8.584;2022-10-17T13:03:27;17.35;84.64
66522;SHT31;53349;53.538;8.584;2022-10-17T13:05:58;17.39;84.59
66522;SHT31;53349;53.538;8.584;2022-10-17T13:08:29;17.39;84.56
66522;SHT31;53349;53.538;8.584;2022-10-17T13:10:56;17.37;84.58
66522;SHT31;53349;53.538;8.584;2022-10-17T13:13:41;17.37;84.60
66522;SHT31;53349;53.538;8.584;2022-10-17T13:16:08;17.32;84.59
66522;SHT31;53349;53.538;8.584;2022-10-17T13:18:51;17.32;84.62
66522;SHT31;53349;53.538;8.584;2022-10-17T13:21:17;17.30;84.60
66522;SHT31;53349;53.538;8.584;2022-10-17T13:23:42;17.27;84.64
66522;SHT31;53349;53.538;8.584;2022-10-17T13:26:14;17.28;84.72
66522;SHT31;53349;53.538;8.584;2022-10-17T13:28:41;17.30;84.78
66522;SHT31;53349;53.538;8.584;2022-10-17T13:31:26;17.28;84.77
66522;SHT31;53349;53.538;8.584;2022-10-17T13:33:55;17.30;84.78
66522;SHT31;53349;53.538;8.584;2022-10-17T13:36:21;17.28;84.77
66522;SHT31;53349;53.538;8.584;2022-10-17T13:38:46;17.26;84.79
66522;SHT31;53349;53.538;8.584;2022-10-17T13:41:13;17.26;84.81
66522;SHT31;53349;53.538;8.584;2022-10-17T13:43:40;17.28;84.72
66522;SHT31;53349;53.538;8.584;2022-10-17T13:46:06;17.30;84.71
66522;SHT31;53349;53.538;8.584;2022-10-17T13:48:35;17.28;84.65
66522;SHT31;53349;53.538;8.584;2022-10-17T13:51:03;17.28;84.60
66522;SHT31;53349;53.538;8.584;2022-10-17T13:53:35;17.26;84.65
66522;SHT31;53349;53.538;8.584;2022-10-17T13:56:04;17.23;84.67
66522;SHT31;53349;53.538;8.584;2022-10-17T13:58:41;17.23;84.71
66522;SHT31;53349;53.538;8.584;2022-10-17T14:01:07;17.24;84.69
66522;SHT31;53349;53.538;8.584;2022-10-17T14:03:33;17.26;84.75
66522;SHT31;53349;53.538;8.584;2022-10-17T14:06:24;17.24;84.73
66522;SHT31;53349;53.538;8.584;2022-10-17T14:08:57;17.26;84.79
66522;SHT31;53349;53.538;8.584;2022-10-17T14:11:43;17.27;84.79
66522;SHT31;53349;53.538;8.584;2022-10-17T14:14:18;17.24;84.85
66522;SHT31;53349;53.538;8.584;2022-10-17T14:16:45;17.26;84.91
66522;SHT31;53349;53.538;8.584;2022-10-17T14:19:32;17.24;84.89
66522;SHT31;53349;53.538;8.584;2022-10-17T14:22:16;17.24;84.96
66522;SHT31;53349;53.538;8.584;2022-10-17T14:24:42;17.23;84.86
66522;SHT31;53349;53.538;8.584;2022-10-17T14:27:33;17.26;84.80
66522;SHT31;53349;53.538;8.584;2022-10-17T14:30:05;17.23;84.74
66522;SHT31;53349;53.538;8.584;2022-10-17T14:32:35;17.26;84.63
66522;SHT31;53349;53.538;8.584;2022-10-17T14:35:03;17.27;84.51
66522;SHT31;53349;53.538;8.584;2022-10-17T14:37:42;17.26;84.39
66522;SHT31;53349;53.538;8.584;2022-10-17T14:40:22;17.23;84.32
66522;SHT31;53349;53.538;8.584;2022-10-17T14:42:49;17.23;84.16
66522;SHT31;53349;53.538;8.584;2022-10-17T14:45:36;17.20;84.05
66522;SHT31;53349;53.538;8.584;2022-10-17T14:48:08;17.21;83.96
66522;SHT31;53349;53.538;8.584;2022-10-17T14:50:34;17.18;83.86
66522;SHT31;53349;53.538;8.584;2022-10-17T14:53:19;17.17;83.86
66522;SHT31;53349;53.538;8.584;2022-10-17T14:55:59;17.17;83.76
66522;SHT31;53349;53.538;8.584;2022-10-17T14:58:30;17.14;83.75
66522;SHT31;53349;53.538;8.584;2022-10-17T15:00:57;17.10;83.89
66522;SHT31;53349;53.538;8.584;2022-10-17T15:03:24;17.11;84.00
66522;SHT31;53349;53.538;8.584;2022-10-17T15:05:50;17.11;84.01
66522;SHT31;53349;53.538;8.584;2022-10-17T15:08:18;17.11;84.05
66522;SHT31;53349;53.538;8.584;2022-10-17T15:10:44;17.11;84.03
66522;SHT31;53349;53.538;8.584;2022-10-17T15:13:11;17.08;83.94
66522;SHT31;53349;53.538;8.584;2022-10-17T15:15:38;17.10;83.81
66522;SHT31;53349;53.538;8.584;2022-10-17T15:18:04;17.07;83.80
66522;SHT31;53349;53.538;8.584;2022-10-17T15:20:30;17.07;83.69
66522;SHT31;53349;53.538;8.584;2022-10-17T15:22:58;17.04;83.68
66522;SHT31;53349;53.538;8.584;2022-10-17T15:25:26;17.04;83.68
66522;SHT31;53349;53.538;8.584;2022-10-17T15:27:52;17.03;83.70
66522;SHT31;53349;53.538;8.584;2022-10-17T15:30:26;17.04;83.74
66522;SHT31;53349;53.538;8.584;2022-10-17T15:32:52;17.02;83.68
66522;SHT31;53349;53.538;8.584;2022-10-17T15:35:19;17.00;83.61
66522;SHT31;53349;53.538;8.584;2022-10-17T15:37:45;16.96;83.64
66522;SHT31;53349;53.538;8.584;2022-10-17T15:40:23;16.99;83.61
66522;SHT31;53349;53.538;8.584;2022-10-17T15:42:48;16.94;83.69
66522;SHT31;53349;53.538;8.584;2022-10-17T15:45:16;16.94;83.60
66522;SHT31;53349;53.538;8.584;2022-10-17T15:47:50;16.93;83.67
66522;SHT31;53349;53.538;8.584;2022-10-17T15:50:17;16.88;83.70
66522;SHT31;53349;53.538;8.584;2022-10-17T15:52:42;16.88;83.69
66522;SHT31;53349;53.538;8.584;2022-10-17T15:55:09;16.87;83.69
66522;SHT31;53349;53.538;8.584;2022-10-17T15:57:40;16.83;83.66
66522;SHT31;53349;53.538;8.584;2022-10-17T16:00:14;16.81;83.66
66522;SHT31;53349;53.538;8.584;2022-10-17T16:02:40;16.79;83.68
66522;SHT31;53349;53.538;8.584;2022-10-17T16:07:41;16.75;83.83
66522;SHT31;53349;53.538;8.584;2022-10-17T16:10:07;16.69;84.02
66522;SHT31;53349;53.538;8.584;2022-10-17T16:12:34;16.70;84.09
66522;SHT31;53349;53.538;8.584;2022-10-17T16:15:06;16.69;84.19
66522;SHT31;53349;53.538;8.584;2022-10-17T16:17:35;16.67;84.27
66522;SHT31;53349;53.538;8.584;2022-10-17T16:20:00;16.65;84.39
66522;SHT31;53349;53.538;8.584;2022-10-17T16:22:29;16.65;84.47
66522;SHT31;53349;53.538;8.584;2022-10-17T16:24:56;16.56;84.75
66522;SHT31;53349;53.538;8.584;2022-10-17T16:27:25;16.51;85.42
66522;SHT31;53349;53.538;8.584;2022-10-17T16:29:50;16.44;85.71
66522;SHT31;53349;53.538;8.584;2022-10-17T16:32:16;16.30;85.51
66522;SHT31;53349;53.538;8.584;2022-10-17T16:34:44;16.21;85.04
66522;SHT31;53349;53.538;8.584;2022-10-17T16:37:10;16.11;84.89
66522;SHT31;53349;53.538;8.584;2022-10-17T16:39:35;16.09;84.74
66522;SHT31;53349;53.538;8.584;2022-10-17T16:42:02;16.00;83.99
66522;SHT31;53349;53.538;8.584;2022-10-17T16:44:27;15.94;83.96
66522;SHT31;53349;53.538;8.584;2022-10-17T16:46:53;15.94;84.01
66522;SHT31;53349;53.538;8.584;2022-10-17T16:49:18;15.91;84.36
66522;SHT31;53349;53.538;8.584;2022-10-17T16:51:43;15.93;84.46
66522;SHT31;53349;53.538;8.584;2022-10-17T16:54:12;15.91;84.58
66522;SHT31;53349;53.538;8.584;2022-10-17T16:56:37;15.93;84.53
66522;SHT31;53349;53.538;8.584;2022-10-17T16:59:04;15.94;84.50
66522;SHT31;53349;53.538;8.584;2022-10-17T17:01:29;15.93;84.33
66522;SHT31;53349;53.538;8.584;2022-10-17T17:03:55;15.93;84.28
66522;SHT31;53349;53.538;8.584;2022-10-17T17:06:23;15.93;84.20
66522;SHT31;53349;53.538;8.584;2022-10-17T17:08:49;15.91;84.01
66522;SHT31;53349;53.538;8.584;2022-10-17T17:11:17;15.88;83.77
66522;SHT31;53349;53.538;8.584;2022-10-17T17:13:43;15.88;83.80
66522;SHT31;53349;53.538;8.584;2022-10-17T17:16:12;15.84;83.75
66522;SHT31;53349;53.538;8.584;2022-10-17T17:18:37;15.86;83.87